Aérodrome :
LOGIN :

S'inscrire | Disclaimer

   EN    FR    IT 

 










Légende :    VFR   VFR Marginal   IFR   IFR Intensif   IFR Très Intensif
Visi : 
Plafond : 
>= 8 km
>= 3000ft
5 à 8 km
1000 à 3000 ft
1500m à 5 km
500 à 1000 ft
800 à 1500m
200 à 500 ft
< 800m
< 200 ft
Symboles :   Orages  Brouillard  Fortes neiges  Fortes précipitations  Vent > 20 kt
SIGMETs :   Divers  Orages  Givrage  Turbulence  Onde Orograph.  Cendres Volcan.






- Altitude de l'aérodrome : 120 ft
- Code IATA : MME


EGNV - Durham Tees valley

DERNIER METAR :
  • 171550Z 25008KT 9999 FEW025 05/02 Q1008

METARs EXPIRÉS :
  • 171520Z 24008KT 9999 FEW025 05/02 Q1008
  • 171450Z 24007KT 9999 FEW020 05/02 Q1007
  • 171420Z 26009KT 9999 FEW020 05/02 Q1007
  • 171350Z 25009KT 9999 FEW018 06/02 Q1007
  • 171320Z 24005KT 9999 SCT020 05/03 Q1007
  • 171250Z 28005KT 250V310 9999 FEW015 05/02 Q1006

TAF TAF EGNV
Valide du 17 à 15h jusqu'au 17 à 22h UTC


171400Z 1715/1722 25009KT 9999 SCT030
ATIS : +44 9012 018 111



MET'MAP, la Météo Aéronautique d'un coup d'oeil ! - Copyright ORBIFLY Décembre 2007 - Disclaimer

ORBIFLY MET'MAP TEAM :

Programmation & Développement : Alexandra Zaïnal
Sur une idée originale de : Baudouin d'Aumeries
Assistance à la programmation : Marc-Olivier Méhu
Soutien technique & logistique : Manuel Goepfert

Contact : metmap@orbifly.com




SOURCES & CREDITS :

   NOAA